Time;durP1;ratioP1;P1;durP2;ratioP2;P2;SDS_P1;SDS_P2;PMS_P1;PMS_P2;Temp;Humidity;BMP_temperature;BMP_pressure;BME280_temperature;BME280_humidity;BME280_pressure;Samples;Min_cycle;Max_cycle;Signal;HPM_P1;HPM_P2
2023/06/23 00:00:36;;;;;;;2.08;1.60;;;;;;;;;;4969991;28;20045;-84
2023/06/23 00:03:02;;;;;;;2.03;1.48;;;;;;;;;;4971339;28;20050;-85
2023/06/23 00:05:27;;;;;;;2.63;1.80;;;;;;;;;;4971527;28;20042;-85
2023/06/23 00:07:56;;;;;;;2.67;1.58;;;;;;;;;;4956189;28;20023;-84
2023/06/23 00:10:24;;;;;;;2.40;1.70;;;;;;;;;;4973405;28;20106;-84
2023/06/23 00:12:50;;;;;;;3.10;1.50;;;;;;;;;;4952588;28;20054;-84
2023/06/23 00:15:22;;;;;;;1.80;1.60;;;;;;;;;;4959593;28;20034;-84
2023/06/23 00:18:08;;;;;;;1.63;1.48;;;;;;;;;;4968098;28;20034;-85
2023/06/23 00:20:33;;;;;;;2.08;1.70;;;;;;;;;;4950740;28;20525;-84
2023/06/23 00:23:05;;;;;;;2.17;1.95;;;;;;;;;;4949563;28;20091;-86
2023/06/23 00:25:30;;;;;;;;;;;;;;;;;;4950572;28;20035;-82
2023/06/23 00:27:56;;;;;;;2.38;1.67;;;;;;;;;;4972643;28;19917;-83
2023/06/23 00:30:22;;;;;;;1.60;1.50;;;;;;;;;;4968870;28;20945;-84
2023/06/23 00:32:47;;;;;;;3.20;1.92;;;;;;;;;;4967597;28;20117;-83
2023/06/23 00:35:13;;;;;;;2.35;1.83;;;;;;;;;;4975807;28;20053;-83
2023/06/23 00:37:38;;;;;;;2.47;1.83;;;;;;;;;;4973373;28;20393;-82
2023/06/23 00:40:10;;;;;;;2.30;1.88;;;;;;;;;;4979520;28;20022;-82
2023/06/23 00:42:46;;;;;;;2.10;1.73;;;;;;;;;;4965897;28;20118;-84
2023/06/23 00:45:11;;;;;;;2.42;1.58;;;;;;;;;;4958066;28;20057;-83
2023/06/23 00:47:37;;;;;;;2.28;2.08;;;;;;;;;;4971441;28;20540;-84
2023/06/23 00:50:02;;;;;;;2.92;1.90;;;;;;;;;;4971057;28;20050;-83
2023/06/23 00:52:28;;;;;;;5.80;1.85;;;;;;;;;;4964868;28;20050;-83
2023/06/23 00:54:53;;;;;;;1.90;1.80;;;;;;;;;;4945846;29;20386;-83
2023/06/23 00:57:18;;;;;;;2.55;1.88;;;;;;;;;;4945510;29;20047;-83
2023/06/23 00:59:44;;;;;;;2.25;1.73;;;;;;;;;;4947583;29;20019;-85
2023/06/23 01:02:09;;;;;;;1.70;1.60;;;;;;;;;;4958831;28;20023;-84
2023/06/23 01:04:35;;;;;;;2.35;1.70;;;;;;;;;;4949632;29;20032;-84
2023/06/23 01:07:06;;;;;;;1.73;1.60;;;;;;;;;;4933447;29;20545;-85
2023/06/23 01:09:52;;;;;;;2.08;1.67;;;;;;;;;;4970580;28;20168;-84
2023/06/23 01:12:27;;;;;;;3.72;2.00;;;;;;;;;;4959606;28;20023;-84
2023/06/23 01:15:14;;;;;;;3.70;1.88;;;;;;;;;;4962244;29;20030;-84
2023/06/23 01:17:49;;;;;;;2.45;2.00;;;;;;;;;;4937768;28;20032;-84
2023/06/23 01:20:24;;;;;;;2.95;1.98;;;;;;;;;;4959905;28;20047;-84
2023/06/23 01:23:14;;;;;;;3.58;2.53;;;;;;;;;;4934152;29;20110;-84
2023/06/23 01:26:01;;;;;;;5.07;2.63;;;;;;;;;;4943460;29;20034;-84
2023/06/23 01:29:00;;;;;;;2.25;2.05;;;;;;;;;;4943687;29;20031;-84
2023/06/23 01:31:57;;;;;;;3.83;2.75;;;;;;;;;;4929003;29;20039;-83
2023/06/23 01:34:28;;;;;;;3.67;2.50;;;;;;;;;;4919986;29;20439;-84
2023/06/23 01:37:08;;;;;;;5.40;2.70;;;;;;;;;;4956286;28;20027;-84
2023/06/23 01:39:35;;;;;;;3.85;2.60;;;;;;;;;;4959527;28;20118;-83
2023/06/23 01:42:07;;;;;;;4.78;3.13;;;;;;;;;;4960448;29;20446;-84
2023/06/23 01:44:34;;;;;;;6.20;2.92;;;;;;;;;;4952598;28;20028;-82
2023/06/23 01:47:03;;;;;;;4.13;2.78;;;;;;;;;;4960240;28;20031;-82
2023/06/23 01:49:36;;;;;;;4.75;3.13;;;;;;;;;;4955966;28;20050;-82
2023/06/23 01:52:04;;;;;;;4.18;2.45;;;;;;;;;;4957810;28;20034;-82
2023/06/23 01:54:31;;;;;;;4.05;3.00;;;;;;;;;;4956549;28;20470;-81
2023/06/23 01:56:58;;;;;;;6.53;3.55;;;;;;;;;;4957166;29;20026;-82
2023/06/23 01:59:24;;;;;;;4.38;3.10;;;;;;;;;;4957666;28;20016;-83
2023/06/23 02:01:52;;;;;;;4.43;3.15;;;;;;;;;;4950213;29;20082;-82
2023/06/23 02:04:19;;;;;;;3.47;2.58;;;;;;;;;;4955314;29;20050;-83
2023/06/23 02:06:46;;;;;;;4.82;2.20;;;;;;;;;;4953205;29;20027;-84
2023/06/23 02:09:17;;;;;;;2.78;2.25;;;;;;;;;;4954843;28;20052;-83
2023/06/23 02:11:43;;;;;;;5.72;2.83;;;;;;;;;;4958506;28;20035;-82
2023/06/23 02:14:11;;;;;;;3.80;2.20;;;;;;;;;;4961934;28;20023;-82
2023/06/23 02:16:39;;;;;;;4.00;2.45;;;;;;;;;;4958944;28;20029;-83
2023/06/23 02:19:06;;;;;;;3.40;2.67;;;;;;;;;;4976102;28;20019;-81
2023/06/23 02:21:33;;;;;;;3.95;2.42;;;;;;;;;;4958865;28;20034;-82
2023/06/23 02:24:04;;;;;;;3.78;2.70;;;;;;;;;;4957992;29;20038;-82
2023/06/23 02:26:31;;;;;;;4.13;2.90;;;;;;;;;;4953997;28;20397;-83
2023/06/23 02:28:56;;;;;;;3.88;2.97;;;;;;;;;;4964450;28;20046;-82
2023/06/23 02:31:23;;;;;;;3.63;2.97;;;;;;;;;;4956245;29;20019;-85
2023/06/23 02:33:49;;;;;;;4.65;3.55;;;;;;;;;;4957828;29;20034;-84
2023/06/23 02:36:20;;;;;;;3.33;2.97;;;;;;;;;;4933309;29;20019;-84
2023/06/23 02:38:50;;;;;;;4.15;3.20;;;;;;;;;;4946179;28;20027;-84
2023/06/23 02:41:18;;;;;;;5.20;3.03;;;;;;;;;;4949858;28;20024;-85
2023/06/23 02:43:50;;;;;;;4.40;3.08;;;;;;;;;;4961946;28;20035;-84
2023/06/23 02:46:18;;;;;;;5.10;3.80;;;;;;;;;;4977888;28;20035;-84
2023/06/23 02:48:46;;;;;;;6.15;4.53;;;;;;;;;;4962055;28;20050;-84
2023/06/23 02:51:14;;;;;;;7.50;4.00;;;;;;;;;;4934912;29;20023;-85
2023/06/23 02:53:48;;;;;;;6.00;3.92;;;;;;;;;;4958672;28;20023;-85
2023/06/23 02:56:20;;;;;;;6.60;4.72;;;;;;;;;;4939680;29;20023;-85
2023/06/23 02:58:47;;;;;;;7.05;5.07;;;;;;;;;;4957223;29;20122;-86
2023/06/23 03:01:14;;;;;;;7.05;5.03;;;;;;;;;;4963815;28;20089;-85
2023/06/23 03:03:44;;;;;;;7.90;5.53;;;;;;;;;;4967307;28;20055;-86
2023/06/23 03:06:22;;;;;;;8.50;5.45;;;;;;;;;;4966329;28;20252;-84
2023/06/23 03:08:48;;;;;;;8.57;5.28;;;;;;;;;;4927623;29;20069;-84
2023/06/23 03:11:18;;;;;;;9.60;6.13;;;;;;;;;;4954848;28;20053;-83
2023/06/23 03:13:44;;;;;;;9.23;6.22;;;;;;;;;;4956158;29;20127;-84
2023/06/23 03:16:15;;;;;;;10.13;5.85;;;;;;;;;;4953269;28;20063;-84
2023/06/23 03:18:47;;;;;;;8.48;6.13;;;;;;;;;;4961706;28;20066;-85
2023/06/23 03:21:14;;;;;;;8.65;5.90;;;;;;;;;;4945198;29;20064;-84
2023/06/23 03:23:54;;;;;;;11.10;6.80;;;;;;;;;;4948952;29;20031;-86
2023/06/23 03:26:21;;;;;;;9.45;6.28;;;;;;;;;;4951965;28;20104;-85
2023/06/23 03:28:56;;;;;;;8.48;6.10;;;;;;;;;;4937994;29;20430;-85
2023/06/23 03:31:24;;;;;;;9.82;6.38;;;;;;;;;;4930083;29;20039;-84
2023/06/23 03:33:52;;;;;;;8.00;5.97;;;;;;;;;;4954806;29;20016;-85
2023/06/23 03:36:27;;;;;;;9.57;6.40;;;;;;;;;;4934459;28;20079;-87
2023/06/23 03:39:03;;;;;;;9.48;6.45;;;;;;;;;;4942064;29;20087;-86
2023/06/23 03:41:30;;;;;;;10.73;6.07;;;;;;;;;;4961620;29;20051;-86
2023/06/23 03:44:14;;;;;;;9.10;5.57;;;;;;;;;;4957118;28;20031;-84
2023/06/23 03:46:49;;;;;;;8.10;5.68;;;;;;;;;;4945641;29;20121;-84
2023/06/23 03:49:17;;;;;;;9.48;6.50;;;;;;;;;;4954041;28;20019;-85
2023/06/23 03:51:50;;;;;;;9.80;6.28;;;;;;;;;;4942451;29;20028;-85
2023/06/23 03:54:17;;;;;;;9.32;6.55;;;;;;;;;;4946823;29;20047;-85
2023/06/23 03:56:52;;;;;;;9.95;6.68;;;;;;;;;;4946002;29;20110;-84
2023/06/23 03:59:19;;;;;;;9.27;6.40;;;;;;;;;;4952171;28;20097;-86
2023/06/23 04:01:53;;;;;;;8.60;6.82;;;;;;;;;;4940534;29;20035;-85
2023/06/23 04:04:29;;;;;;;9.15;6.78;;;;;;;;;;4942863;29;20082;-85
2023/06/23 04:07:05;;;;;;;14.10;7.25;;;;;;;;;;4954067;29;20039;-85
2023/06/23 04:09:49;;;;;;;9.93;6.55;;;;;;;;;;4947171;28;20019;-84
2023/06/23 04:12:44;;;;;;;12.13;7.57;;;;;;;;;;4933242;29;20043;-84
2023/06/23 04:15:34;;;;;;;8.35;6.38;;;;;;;;;;4936583;29;20027;-84
2023/06/23 04:18:29;;;;;;;10.70;7.30;;;;;;;;;;4935657;28;20106;-85
2023/06/23 04:24:32;;;;;;;13.73;7.63;;;;;;;;;;4954031;28;20032;-83
2023/06/23 04:27:16;;;;;;;11.18;7.65;;;;;;;;;;4941405;28;20047;-85
2023/06/23 04:30:13;;;;;;;12.30;7.40;;;;;;;;;;4953044;28;20041;-84
2023/06/23 04:33:16;;;;;;;12.10;8.52;;;;;;;;;;4939725;28;20027;-83
2023/06/23 04:35:50;;;;;;;12.98;7.90;;;;;;;;;;4953972;28;20038;-84
2023/06/23 04:38:50;;;;;;;;;;;;;;;;;;;;;
2023/06/23 04:42:00;;;;;;;11.88;8.10;;;;;;;;;;4942178;29;20122;-84
2023/06/23 04:44:57;;;;;;;13.07;8.68;;;;;;;;;;4959847;29;20051;-85
2023/06/23 04:51:30;;;;;;;12.80;8.85;;;;;;;;;;4947314;29;20034;-86
2023/06/23 05:06:49;;;;;;;13.80;9.77;;;;;;;;;;5036299;23;20332;-82
2023/06/23 05:09:16;;;;;;;19.05;11.18;;;;;;;;;;4974294;28;20034;-82
2023/06/23 05:11:43;;;;;;;16.27;11.02;;;;;;;;;;4967762;28;20034;-82
2023/06/23 05:14:09;;;;;;;19.13;10.77;;;;;;;;;;4964325;28;20032;-80
2023/06/23 05:16:36;;;;;;;16.10;11.77;;;;;;;;;;4967847;28;20060;-81
2023/06/23 05:19:06;;;;;;;17.02;12.05;;;;;;;;;;4972950;28;20033;-82
2023/06/23 05:21:33;;;;;;;18.73;12.43;;;;;;;;;;4972732;28;20038;-81
2023/06/23 05:24:00;;;;;;;18.83;11.98;;;;;;;;;;4967811;28;20037;-80
2023/06/23 05:26:33;;;;;;;19.90;12.40;;;;;;;;;;4962792;29;20484;-81
2023/06/23 05:29:03;;;;;;;22.58;13.27;;;;;;;;;;4968883;28;20023;-82
2023/06/23 05:31:30;;;;;;;19.80;12.82;;;;;;;;;;4988462;28;20090;-82
2023/06/23 05:33:57;;;;;;;21.17;13.27;;;;;;;;;;4979368;28;20065;-81
2023/06/23 05:36:24;;;;;;;25.40;13.35;;;;;;;;;;4950726;28;20039;-81
2023/06/23 05:38:53;;;;;;;22.90;13.90;;;;;;;;;;4969004;28;20035;-82
2023/06/23 05:41:19;;;;;;;20.48;14.20;;;;;;;;;;4969478;28;20027;-81
2023/06/23 05:43:44;;;;;;;22.65;15.60;;;;;;;;;;4965652;28;20030;-82
2023/06/23 05:46:14;;;;;;;22.48;15.45;;;;;;;;;;4964964;28;20033;-82
2023/06/23 05:48:44;;;;;;;21.38;14.82;;;;;;;;;;4971991;28;20054;-82
2023/06/23 05:51:13;;;;;;;22.33;14.75;;;;;;;;;;4965862;28;20031;-82
2023/06/23 05:53:40;;;;;;;23.50;15.35;;;;;;;;;;4968867;28;20069;-81
2023/06/23 05:56:14;;;;;;;22.77;15.02;;;;;;;;;;4960182;28;20031;-82
2023/06/23 05:58:44;;;;;;;24.80;16.08;;;;;;;;;;4962578;28;20095;-83
2023/06/23 06:01:19;;;;;;;22.05;15.43;;;;;;;;;;4958358;28;20035;-81
2023/06/23 06:03:47;;;;;;;24.08;16.25;;;;;;;;;;4963315;28;20027;-82
2023/06/23 06:06:14;;;;;;;25.33;15.40;;;;;;;;;;4957120;28;20034;-82
2023/06/23 06:08:40;;;;;;;24.17;15.20;;;;;;;;;;4957777;28;20031;-83
2023/06/23 06:11:07;;;;;;;23.88;14.80;;;;;;;;;;4951899;28;20122;-82
2023/06/23 06:13:38;;;;;;;23.33;15.02;;;;;;;;;;4968011;28;20542;-83
2023/06/23 06:16:07;;;;;;;24.65;14.27;;;;;;;;;;4967255;28;20077;-82
2023/06/23 06:18:34;;;;;;;19.13;14.18;;;;;;;;;;4977499;28;20034;-83
2023/06/23 06:21:00;;;;;;;21.00;13.68;;;;;;;;;;4962304;28;20058;-82
2023/06/23 06:23:27;;;;;;;21.42;14.18;;;;;;;;;;4959905;28;20031;-83
2023/06/23 06:25:54;;;;;;;24.88;14.75;;;;;;;;;;4962491;28;20034;-81
2023/06/23 06:28:20;;;;;;;22.17;14.82;;;;;;;;;;4960797;28;20274;-80
2023/06/23 06:30:48;;;;;;;25.17;13.90;;;;;;;;;;4960592;28;20023;-82
2023/06/23 06:33:14;;;;;;;23.90;14.50;;;;;;;;;;4976171;28;20025;-81
2023/06/23 06:35:41;;;;;;;22.10;14.45;;;;;;;;;;4965510;28;20043;-83
2023/06/23 06:38:09;;;;;;;20.70;13.75;;;;;;;;;;4983344;28;20014;-81
2023/06/23 06:40:36;;;;;;;27.13;15.65;;;;;;;;;;4977687;28;20031;-81
2023/06/23 06:43:01;;;;;;;22.65;13.13;;;;;;;;;;4977919;28;20036;-83
2023/06/23 06:45:27;;;;;;;22.33;13.10;;;;;;;;;;4963525;28;20027;-83
2023/06/23 06:47:54;;;;;;;21.42;13.02;;;;;;;;;;4946910;28;20018;-82
2023/06/23 06:50:20;;;;;;;21.90;13.20;;;;;;;;;;5257845;23;20086;-82
2023/06/23 06:52:47;;;;;;;20.20;13.18;;;;;;;;;;4963771;28;20038;-82
2023/06/23 06:55:17;;;;;;;28.60;14.23;;;;;;;;;;4965285;28;20027;-82
2023/06/23 06:57:44;;;;;;;20.02;13.98;;;;;;;;;;4935266;29;20393;-81
2023/06/23 07:00:10;;;;;;;20.40;13.95;;;;;;;;;;4957627;29;20421;-81
2023/06/23 07:02:37;;;;;;;22.88;14.57;;;;;;;;;;4942325;29;20031;-86
2023/06/23 07:05:02;;;;;;;18.77;12.68;;;;;;;;;;4961557;28;20041;-82
2023/06/23 07:07:30;;;;;;;18.35;11.45;;;;;;;;;;4981624;28;20110;-82
2023/06/23 07:09:55;;;;;;;19.70;12.40;;;;;;;;;;4943723;28;20058;-83
2023/06/23 07:12:20;;;;;;;18.33;11.52;;;;;;;;;;4967339;29;20012;-81
2023/06/23 07:14:46;;;;;;;17.02;10.95;;;;;;;;;;4955396;28;20054;-83
2023/06/23 07:17:11;;;;;;;14.52;10.43;;;;;;;;;;4949239;29;20023;-83
2023/06/23 07:19:38;;;;;;;15.40;10.77;;;;;;;;;;4979368;28;20071;-81
2023/06/23 07:22:04;;;;;;;17.40;11.48;;;;;;;;;;4983124;28;20039;-82
2023/06/23 07:24:30;;;;;;;17.38;11.20;;;;;;;;;;4973033;28;20058;-83
2023/06/23 07:26:55;;;;;;;17.98;11.40;;;;;;;;;;4964437;28;20019;-84
2023/06/23 07:29:20;;;;;;;19.98;11.75;;;;;;;;;;4976061;28;20074;-82
2023/06/23 07:31:45;;;;;;;17.63;11.45;;;;;;;;;;4974474;28;20034;-82
2023/06/23 07:34:11;;;;;;;18.88;10.95;;;;;;;;;;4970138;28;20046;-83
2023/06/23 07:36:37;;;;;;;16.23;11.25;;;;;;;;;;4977069;28;20035;-83
2023/06/23 07:39:02;;;;;;;16.60;11.20;;;;;;;;;;4952191;28;20041;-83
2023/06/23 07:41:28;;;;;;;16.85;10.32;;;;;;;;;;4978581;28;20110;-82
2023/06/23 07:43:53;;;;;;;16.65;11.18;;;;;;;;;;4958962;28;20065;-83
2023/06/23 07:46:18;;;;;;;17.25;10.45;;;;;;;;;;4976580;28;20045;-82
2023/06/23 07:48:44;;;;;;;19.45;10.57;;;;;;;;;;4979042;28;20377;-84
2023/06/23 07:51:09;;;;;;;13.50;10.40;;;;;;;;;;4961374;28;20018;-82
2023/06/23 07:53:35;;;;;;;19.50;11.20;;;;;;;;;;4976764;28;20093;-85
2023/06/23 07:56:00;;;;;;;17.27;10.98;;;;;;;;;;4976948;28;20121;-82
2023/06/23 07:58:25;;;;;;;15.93;9.32;;;;;;;;;;4961769;28;20374;-84
2023/06/23 08:00:53;;;;;;;16.20;10.85;;;;;;;;;;4982034;28;20022;-83
2023/06/23 08:03:18;;;;;;;13.50;8.90;;;;;;;;;;4974055;28;20390;-82
2023/06/23 08:05:43;;;;;;;15.60;9.48;;;;;;;;;;4969648;28;20062;-81
2023/06/23 08:08:12;;;;;;;11.18;8.48;;;;;;;;;;4968668;28;20015;-83
2023/06/23 08:10:37;;;;;;;16.48;9.45;;;;;;;;;;4973050;28;20031;-81
2023/06/23 08:13:02;;;;;;;14.15;8.65;;;;;;;;;;4974943;28;20026;-85
2023/06/23 08:15:28;;;;;;;14.60;9.50;;;;;;;;;;4974276;28;20082;-85
2023/06/23 08:17:54;;;;;;;16.00;8.90;;;;;;;;;;4966852;28;20367;-82
2023/06/23 08:20:20;;;;;;;14.57;8.98;;;;;;;;;;4952874;28;20026;-81
2023/06/23 08:22:45;;;;;;;12.82;9.05;;;;;;;;;;4970554;28;20482;-82
2023/06/23 08:25:11;;;;;;;12.98;8.10;;;;;;;;;;4951409;28;20027;-82
2023/06/23 08:27:36;;;;;;;13.80;8.73;;;;;;;;;;4956354;28;20030;-83
2023/06/23 08:30:02;;;;;;;15.48;9.18;;;;;;;;;;4946639;28;20069;-82
2023/06/23 08:32:28;;;;;;;14.88;8.63;;;;;;;;;;4945209;29;20023;-82
2023/06/23 08:34:53;;;;;;;16.13;8.40;;;;;;;;;;4941943;29;20646;-82
2023/06/23 08:37:18;;;;;;;12.82;8.77;;;;;;;;;;4960383;29;20070;-82
2023/06/23 08:39:44;;;;;;;17.30;9.88;;;;;;;;;;4960277;28;20019;-83
2023/06/23 08:42:11;;;;;;;11.80;7.90;;;;;;;;;;4959905;28;20037;-82
2023/06/23 08:44:41;;;;;;;11.73;7.65;;;;;;;;;;4960212;28;20507;-83
2023/06/23 08:47:13;;;;;;;10.52;7.32;;;;;;;;;;4973122;28;20043;-82
2023/06/23 08:49:39;;;;;;;11.50;7.80;;;;;;;;;;4969951;28;20034;-83
2023/06/23 08:52:05;;;;;;;12.48;7.75;;;;;;;;;;4971666;28;20059;-84
2023/06/23 08:54:31;;;;;;;9.52;6.82;;;;;;;;;;4963329;29;20066;-83
2023/06/23 08:56:57;;;;;;;12.18;7.65;;;;;;;;;;4952123;29;20027;-84
2023/06/23 08:59:23;;;;;;;9.00;6.63;;;;;;;;;;4969037;28;20019;-83
2023/06/23 09:01:49;;;;;;;8.18;5.95;;;;;;;;;;4968647;28;20031;-82
2023/06/23 09:04:14;;;;;;;10.70;7.43;;;;;;;;;;4972816;28;20023;-84
2023/06/23 09:06:40;;;;;;;10.70;7.80;;;;;;;;;;4961892;28;21387;-83
2023/06/23 09:09:06;;;;;;;12.07;7.32;;;;;;;;;;4949049;29;20027;-84
2023/06/23 09:11:32;;;;;;;10.63;7.65;;;;;;;;;;4972973;28;20042;-84
2023/06/23 09:13:59;;;;;;;8.25;6.65;;;;;;;;;;4970800;28;20019;-84
2023/06/23 09:16:27;;;;;;;11.77;7.45;;;;;;;;;;4962740;28;20019;-84
2023/06/23 09:18:52;;;;;;;10.32;7.18;;;;;;;;;;4930664;29;20051;-84
2023/06/23 09:21:18;;;;;;;8.82;6.57;;;;;;;;;;4968987;28;20035;-80
2023/06/23 09:24:04;;;;;;;10.07;6.65;;;;;;;;;;4972105;28;20385;-84
2023/06/23 09:26:43;;;;;;;9.88;7.30;;;;;;;;;;4970821;28;20073;-83
2023/06/23 09:29:18;;;;;;;8.50;7.10;;;;;;;;;;4958753;28;20023;-83
2023/06/23 09:31:46;;;;;;;9.02;5.90;;;;;;;;;;4949662;28;20043;-83
2023/06/23 09:34:23;;;;;;;6.93;5.35;;;;;;;;;;4964249;28;20477;-83
2023/06/23 09:36:50;;;;;;;7.03;5.68;;;;;;;;;;4969182;28;20034;-81
2023/06/23 09:39:16;;;;;;;10.60;5.40;;;;;;;;;;4966526;28;20015;-84
2023/06/23 09:41:58;;;;;;;7.50;5.35;;;;;;;;;;4953663;28;20194;-84
2023/06/23 09:44:32;;;;;;;6.55;4.82;;;;;;;;;;4975717;28;20425;-82
2023/06/23 09:47:02;;;;;;;6.93;4.97;;;;;;;;;;4962910;28;20031;-82
2023/06/23 09:49:27;;;;;;;7.93;5.25;;;;;;;;;;4963608;28;20027;-83
2023/06/23 09:51:54;;;;;;;7.85;4.97;;;;;;;;;;4950469;28;20603;-81
2023/06/23 09:54:39;;;;;;;7.95;5.00;;;;;;;;;;4972744;28;20119;-82
2023/06/23 09:57:12;;;;;;;8.38;4.25;;;;;;;;;;4946203;29;20058;-83
2023/06/23 09:59:39;;;;;;;5.82;4.80;;;;;;;;;;4967069;28;20035;-83
2023/06/23 10:02:07;;;;;;;6.10;4.45;;;;;;;;;;4976297;28;20030;-83
2023/06/23 10:04:32;;;;;;;8.27;4.63;;;;;;;;;;4972213;28;20401;-83
2023/06/23 10:06:58;;;;;;;5.72;4.13;;;;;;;;;;4967386;28;20030;-83
2023/06/23 10:09:25;;;;;;;7.25;4.65;;;;;;;;;;4957615;28;20464;-82
2023/06/23 10:11:51;;;;;;;6.15;4.20;;;;;;;;;;4963222;28;20119;-82
2023/06/23 10:14:18;;;;;;;6.68;4.07;;;;;;;;;;4948693;29;20119;-83
2023/06/23 10:16:44;;;;;;;7.82;4.88;;;;;;;;;;4952150;28;20077;-84
2023/06/23 10:19:11;;;;;;;7.72;5.13;;;;;;;;;;4965580;28;20019;-84
2023/06/23 10:21:37;;;;;;;6.38;4.22;;;;;;;;;;4951126;28;20098;-83
2023/06/23 10:24:17;;;;;;;9.63;5.47;;;;;;;;;;4966708;28;20278;-84
2023/06/23 10:26:42;;;;;;;8.27;4.85;;;;;;;;;;4964597;28;20073;-85
2023/06/23 10:29:12;;;;;;;12.88;4.60;;;;;;;;;;4964358;28;20031;-85
2023/06/23 10:31:40;;;;;;;10.48;4.65;;;;;;;;;;4962804;28;20501;-85
2023/06/23 10:34:10;;;;;;;6.28;4.05;;;;;;;;;;4948740;28;20031;-83
2023/06/23 10:36:39;;;;;;;6.10;4.03;;;;;;;;;;4934045;28;20035;-82
2023/06/23 10:39:06;;;;;;;7.20;5.07;;;;;;;;;;4954943;28;20042;-83
2023/06/23 10:41:33;;;;;;;6.95;4.60;;;;;;;;;;4970628;28;20049;-82
2023/06/23 10:44:02;;;;;;;7.22;5.20;;;;;;;;;;4959654;28;20038;-82
2023/06/23 10:46:27;;;;;;;7.20;4.50;;;;;;;;;;4950908;28;20035;-82
2023/06/23 10:48:53;;;;;;;8.35;4.47;;;;;;;;;;4967905;28;20023;-83
2023/06/23 10:51:19;;;;;;;11.15;4.68;;;;;;;;;;4956697;28;20085;-81
2023/06/23 10:54:00;;;;;;;8.75;4.43;;;;;;;;;;4944939;28;20081;-82
2023/06/23 10:56:34;;;;;;;5.90;3.95;;;;;;;;;;4965215;28;20057;-82
2023/06/23 10:59:16;;;;;;;6.03;4.28;;;;;;;;;;4950220;28;20033;-81
2023/06/23 11:02:00;;;;;;;5.22;4.13;;;;;;;;;;4972656;28;20042;-82
2023/06/23 11:04:52;;;;;;;6.22;4.00;;;;;;;;;;4961833;28;20027;-80
2023/06/23 11:07:18;;;;;;;8.68;4.60;;;;;;;;;;4970955;28;20045;-81
2023/06/23 11:09:49;;;;;;;7.47;4.72;;;;;;;;;;5132441;23;20035;-80
2023/06/23 11:12:27;;;;;;;9.63;4.40;;;;;;;;;;4989768;28;20050;-83
2023/06/23 11:14:52;;;;;;;6.25;4.30;;;;;;;;;;5006337;28;20030;-80
2023/06/23 11:17:20;;;;;;;6.38;4.18;;;;;;;;;;4999611;28;20034;-82
2023/06/23 11:19:51;;;;;;;6.90;3.80;;;;;;;;;;4968927;28;20031;-81
2023/06/23 11:22:21;;;;;;;5.80;4.03;;;;;;;;;;4975156;28;20039;-79
2023/06/23 11:24:53;;;;;;;5.18;3.78;;;;;;;;;;4963939;28;20037;-82
2023/06/23 11:27:18;;;;;;;5.18;3.53;;;;;;;;;;4965547;28;20031;-80
2023/06/23 11:30:13;;;;;;;12.30;4.63;;;;;;;;;;4961697;28;20037;-81
2023/06/23 11:32:39;;;;;;;6.22;4.22;;;;;;;;;;4970114;28;20065;-80
2023/06/23 11:35:06;;;;;;;8.98;4.97;;;;;;;;;;4964450;28;20023;-81
2023/06/23 11:37:33;;;;;;;5.88;4.10;;;;;;;;;;4961415;28;20059;-82
2023/06/23 11:40:00;;;;;;;8.57;4.15;;;;;;;;;;4957919;28;20022;-82
2023/06/23 11:42:26;;;;;;;4.40;2.80;;;;;;;;;;4963382;28;20031;-80
2023/06/23 11:44:55;;;;;;;7.82;3.33;;;;;;;;;;4948797;28;20033;-80
2023/06/23 11:47:28;;;;;;;3.92;2.97;;;;;;;;;;4961099;28;20037;-82
2023/06/23 11:49:54;;;;;;;5.03;3.05;;;;;;;;;;4966024;28;20545;-81
2023/06/23 11:52:20;;;;;;;6.93;3.75;;;;;;;;;;4969622;28;21013;-81
2023/06/23 11:54:48;;;;;;;10.88;4.82;;;;;;;;;;4965229;28;20129;-80
2023/06/23 11:57:21;;;;;;;6.13;4.00;;;;;;;;;;4971810;28;20026;-81
2023/06/23 11:59:47;;;;;;;5.85;4.40;;;;;;;;;;4944373;28;20122;-81
2023/06/23 12:02:14;;;;;;;5.93;4.25;;;;;;;;;;4973107;28;20034;-81
2023/06/23 12:04:41;;;;;;;4.50;3.83;;;;;;;;;;4974952;28;20030;-81
2023/06/23 12:07:08;;;;;;;7.53;3.60;;;;;;;;;;4970722;28;20054;-80
2023/06/23 12:09:38;;;;;;;6.47;2.85;;;;;;;;;;4975237;28;20026;-82
2023/06/23 12:12:04;;;;;;;5.60;3.10;;;;;;;;;;4974001;28;20031;-79
2023/06/23 12:14:31;;;;;;;4.38;2.95;;;;;;;;;;4976854;28;20321;-80
2023/06/23 12:17:09;;;;;;;3.35;2.60;;;;;;;;;;4968888;28;20063;-79
2023/06/23 12:19:36;;;;;;;4.40;2.75;;;;;;;;;;4967774;28;20027;-80
2023/06/23 12:22:02;;;;;;;5.63;2.90;;;;;;;;;;4976137;28;20058;-78
2023/06/23 12:24:31;;;;;;;6.22;3.60;;;;;;;;;;4984016;28;20033;-79
2023/06/23 12:26:58;;;;;;;8.18;3.47;;;;;;;;;;4989538;28;20492;-80
2023/06/23 12:29:24;;;;;;;6.43;3.35;;;;;;;;;;4976170;28;20078;-80
2023/06/23 12:31:55;;;;;;;4.35;3.58;;;;;;;;;;4974610;28;20199;-80
2023/06/23 12:34:20;;;;;;;6.15;3.50;;;;;;;;;;4975078;28;20042;-79
2023/06/23 12:36:47;;;;;;;4.65;2.97;;;;;;;;;;4970018;28;20046;-79
2023/06/23 12:39:15;;;;;;;4.50;2.58;;;;;;;;;;4970871;28;20042;-81
2023/06/23 12:41:40;;;;;;;6.38;3.10;;;;;;;;;;4967136;28;20031;-80
2023/06/23 12:44:06;;;;;;;3.30;2.47;;;;;;;;;;4975496;28;20105;-79
2023/06/23 12:46:31;;;;;;;3.92;3.00;;;;;;;;;;4975107;28;20031;-80
2023/06/23 12:48:57;;;;;;;6.35;3.25;;;;;;;;;;4974269;28;20031;-81
2023/06/23 12:51:40;;;;;;;7.13;3.30;;;;;;;;;;4972702;28;20054;-79
2023/06/23 12:54:06;;;;;;;5.97;3.47;;;;;;;;;;4966695;28;20366;-80
2023/06/23 12:56:31;;;;;;;4.55;3.45;;;;;;;;;;4968779;28;20031;-80
2023/06/23 12:58:57;;;;;;;5.05;3.05;;;;;;;;;;4967899;28;20102;-79
2023/06/23 13:01:24;;;;;;;4.05;2.58;;;;;;;;;;4965062;28;20031;-79
2023/06/23 13:03:49;;;;;;;4.97;2.58;;;;;;;;;;4958875;28;20544;-79
2023/06/23 13:06:14;;;;;;;3.20;2.47;;;;;;;;;;4966033;28;20062;-79
2023/06/23 13:08:41;;;;;;;4.15;2.42;;;;;;;;;;4966171;28;20027;-81
2023/06/23 13:11:07;;;;;;;3.45;2.42;;;;;;;;;;4962075;28;20038;-78
2023/06/23 13:13:32;;;;;;;2.97;2.13;;;;;;;;;;4974926;28;20468;-80
2023/06/23 13:15:59;;;;;;;2.97;2.20;;;;;;;;;;4966243;28;20449;-79
2023/06/23 13:18:24;;;;;;;2.47;2.20;;;;;;;;;;4964838;28;20027;-79
2023/06/23 13:20:50;;;;;;;9.13;2.42;;;;;;;;;;4972085;28;20508;-79
2023/06/23 13:23:15;;;;;;;2.30;2.10;;;;;;;;;;4961677;28;20031;-81
2023/06/23 13:25:40;;;;;;;3.90;2.30;;;;;;;;;;4938268;28;20032;-79
2023/06/23 13:28:06;;;;;;;2.42;1.77;;;;;;;;;;4964227;28;20498;-79
2023/06/23 13:30:31;;;;;;;2.22;1.60;;;;;;;;;;4963619;28;20022;-79
2023/06/23 13:32:57;;;;;;;3.20;1.92;;;;;;;;;;4964878;28;20031;-79
2023/06/23 13:35:23;;;;;;;2.92;2.30;;;;;;;;;;4964960;28;20043;-81
2023/06/23 13:37:48;;;;;;;2.38;2.17;;;;;;;;;;4974367;28;21833;-82
2023/06/23 13:40:14;;;;;;;3.50;2.13;;;;;;;;;;4957139;28;20031;-82
2023/06/23 13:42:40;;;;;;;3.00;2.40;;;;;;;;;;4970706;28;20038;-83
2023/06/23 13:45:08;;;;;;;3.42;2.10;;;;;;;;;;4964278;29;20045;-79
2023/06/23 13:47:33;;;;;;;2.58;1.98;;;;;;;;;;4970097;28;20035;-80
2023/06/23 13:49:58;;;;;;;6.53;2.67;;;;;;;;;;4960054;28;20011;-81
2023/06/23 13:52:24;;;;;;;3.25;2.00;;;;;;;;;;4978464;28;20061;-80
2023/06/23 13:54:49;;;;;;;2.92;2.20;;;;;;;;;;4970909;28;20023;-81
2023/06/23 13:57:15;;;;;;;5.00;2.30;;;;;;;;;;4969778;28;20042;-81
2023/06/23 13:59:43;;;;;;;3.03;2.35;;;;;;;;;;4972800;28;20027;-80
2023/06/23 14:02:08;;;;;;;3.08;2.03;;;;;;;;;;4974029;28;20069;-80
2023/06/23 14:04:34;;;;;;;2.70;2.08;;;;;;;;;;4974090;28;20039;-82
2023/06/23 14:06:59;;;;;;;2.75;2.22;;;;;;;;;;4973423;28;20315;-81
2023/06/23 14:09:25;;;;;;;4.45;2.10;;;;;;;;;;4968590;28;20019;-81
2023/06/23 14:11:50;;;;;;;4.63;2.50;;;;;;;;;;4969445;28;20539;-80
2023/06/23 14:14:16;;;;;;;4.97;2.13;;;;;;;;;;4975219;28;20025;-80
2023/06/23 14:16:42;;;;;;;5.20;2.10;;;;;;;;;;4967329;28;20047;-82
2023/06/23 14:19:09;;;;;;;3.35;2.35;;;;;;;;;;4959887;28;20034;-81
2023/06/23 14:21:35;;;;;;;5.18;2.13;;;;;;;;;;4963895;28;20514;-80
2023/06/23 14:24:01;;;;;;;4.43;2.05;;;;;;;;;;4969159;28;20423;-83
2023/06/23 14:26:26;;;;;;;3.55;2.10;;;;;;;;;;4962338;28;20494;-77
2023/06/23 14:28:52;;;;;;;2.65;2.28;;;;;;;;;;4966389;28;20020;-83
2023/06/23 14:31:17;;;;;;;3.20;2.60;;;;;;;;;;4961139;29;20082;-82
2023/06/23 14:33:44;;;;;;;2.95;2.50;;;;;;;;;;4967630;28;20043;-82
2023/06/23 14:36:09;;;;;;;3.35;2.50;;;;;;;;;;4962307;29;20087;-80
2023/06/23 14:38:35;;;;;;;2.45;2.20;;;;;;;;;;4947003;29;20027;-79
2023/06/23 14:41:00;;;;;;;4.55;2.65;;;;;;;;;;4963494;28;20038;-80
2023/06/23 14:43:25;;;;;;;3.28;2.45;;;;;;;;;;4968523;28;20046;-79
2023/06/23 14:45:52;;;;;;;4.35;2.75;;;;;;;;;;4964383;28;20150;-80
2023/06/23 14:48:19;;;;;;;3.65;2.40;;;;;;;;;;4972313;28;20081;-81
2023/06/23 14:50:44;;;;;;;2.55;2.25;;;;;;;;;;4972126;28;20033;-79
2023/06/23 14:53:09;;;;;;;3.08;2.20;;;;;;;;;;4964918;28;20023;-79
2023/06/23 14:55:36;;;;;;;3.20;2.20;;;;;;;;;;4960546;29;20027;-81
2023/06/23 14:58:02;;;;;;;5.38;2.55;;;;;;;;;;4955707;28;20031;-80
2023/06/23 15:00:28;;;;;;;4.93;2.10;;;;;;;;;;4953047;28;20063;-81
2023/06/23 15:02:54;;;;;;;3.38;2.40;;;;;;;;;;4964222;28;20089;-81
2023/06/23 15:05:19;;;;;;;3.47;2.30;;;;;;;;;;4961187;28;20110;-81
2023/06/23 15:07:45;;;;;;;4.10;2.60;;;;;;;;;;4964179;28;20058;-81
2023/06/23 15:10:10;;;;;;;2.72;2.30;;;;;;;;;;4961436;28;20029;-81